Time;durP1;ratioP1;P1;durP2;ratioP2;P2;SDS_P1;SDS_P2;PMS_P1;PMS_P2;Temp;Humidity;BMP_temperature;BMP_pressure;BME280_temperature;BME280_humidity;BME280_pressure;Samples;Min_cycle;Max_cycle;Signal;HPM_P1;HPM_P2
2022/07/30 00:01:39;;;;;;;2.20;1.90;;;;;;;16.61;97.67;94086.50;5075457;28;20291;-90
2022/07/30 00:04:25;;;;;;;2.00;1.90;;;;;;;16.71;97.57;94072.88;5044117;28;20239;-91
2022/07/30 00:07:10;;;;;;;2.00;1.80;;;;;;;16.85;95.53;94076.44;5073367;28;20270;-90
2022/07/30 00:09:54;;;;;;;6.30;2.30;;;;;;;16.79;95.70;94073.28;5073306;28;20224;-92
2022/07/30 00:12:38;;;;;;;2.00;1.80;;;;;;;16.74;95.70;94065.97;5076294;28;20212;-90
2022/07/30 00:15:23;;;;;;;2.23;2.10;;;;;;;16.74;94.51;94065.97;5071176;28;20200;-91
2022/07/30 00:18:07;;;;;;;2.80;1.97;;;;;;;16.70;94.70;94065.75;5057157;28;20661;-91
2022/07/30 00:20:52;;;;;;;2.13;1.93;;;;;;;16.55;95.18;94062.19;5100760;28;20356;-91
2022/07/30 00:23:36;;;;;;;2.67;2.20;;;;;;;16.46;93.93;94060.31;5085561;28;20188;-90
2022/07/30 00:26:20;;;;;;;3.97;2.13;;;;;;;16.61;92.05;94070.25;5080693;28;20278;-90
2022/07/30 00:29:05;;;;;;;3.30;2.10;;;;;;;16.52;93.11;94066.28;5065014;28;20777;-90
2022/07/30 00:31:49;;;;;;;2.73;2.30;;;;;;;16.48;92.87;94068.88;5062082;28;20227;-91
2022/07/30 00:34:33;;;;;;;2.93;2.10;;;;;;;16.50;92.50;94066.16;5076977;28;20258;-91
2022/07/30 00:37:17;;;;;;;2.10;1.90;;;;;;;16.50;91.96;94060.50;5063276;28;20199;-90
2022/07/30 00:40:01;;;;;;;2.43;2.20;;;;;;;16.60;90.98;94056.78;5065801;28;20251;-91
2022/07/30 00:42:47;;;;;;;3.07;2.17;;;;;;;16.61;90.22;94058.22;5066052;28;20199;-90
2022/07/30 00:45:31;;;;;;;2.20;2.00;;;;;;;16.63;90.26;94056.22;5063201;28;20212;-91
2022/07/30 00:48:15;;;;;;;2.93;2.57;;;;;;;16.51;92.12;94064.06;5064720;28;20240;-91
2022/07/30 00:51:00;;;;;;;3.53;2.20;;;;;;;16.52;91.56;94063.44;5063787;28;20220;-92
2022/07/30 00:53:44;;;;;;;4.17;1.83;;;;;;;16.61;90.93;94061.78;5069804;28;20308;-90
2022/07/30 00:56:28;;;;;;;5.43;2.07;;;;;;;16.66;90.07;94059.91;5061081;28;20208;-93
2022/07/30 00:59:12;;;;;;;3.47;2.30;;;;;;;16.73;88.52;94058.81;5069421;28;20196;-92
2022/07/30 01:02:00;;;;;;;2.70;2.30;;;;;;;16.71;90.64;94061.56;5075901;28;20240;-93
2022/07/30 01:04:45;;;;;;;2.37;2.10;;;;;;;16.51;91.35;94061.97;5062563;28;21098;-94
2022/07/30 01:07:30;;;;;;;3.53;2.83;;;;;;;16.72;89.60;94060.22;5070127;28;20211;-93
2022/07/30 01:10:15;;;;;;;4.17;2.37;;;;;;;16.50;90.79;94049.19;5077852;28;20253;-94
2022/07/30 01:13:00;;;;;;;3.07;1.90;;;;;;;16.64;90.65;94060.53;5060612;28;20200;-92
2022/07/30 01:15:45;;;;;;;3.73;2.40;;;;;;;16.66;89.61;94059.91;5057476;28;20276;-91
2022/07/30 01:21:38;;;;;;;2.57;2.10;;;;;;;16.72;88.34;94051.72;5077792;28;20262;-94
2022/07/30 01:24:37;;;;;;;4.00;2.30;;;;;;;16.57;88.91;94050.97;5053508;28;20344;-93
2022/07/30 01:27:23;;;;;;;2.53;2.03;;;;;;;16.50;89.68;94051.28;5060644;28;20333;-94
2022/07/30 01:30:09;;;;;;;2.80;2.10;;;;;;;16.68;87.99;94054.34;5076496;28;20236;-93
2022/07/30 01:32:56;;;;;;;4.03;2.50;;;;;;;16.49;88.31;94044.88;5063735;28;20203;-93
2022/07/30 01:35:43;;;;;;;5.60;2.53;;;;;;;16.44;88.84;94051.72;5057005;28;20213;-89
2022/07/30 01:38:31;;;;;;;3.90;2.20;;;;;;;16.44;89.06;94040.41;5069827;28;20195;-93
2022/07/30 01:41:18;;;;;;;2.73;2.50;;;;;;;16.48;88.68;94046.25;5093096;28;20197;-93
2022/07/30 01:44:04;;;;;;;2.40;2.23;;;;;;;16.40;88.68;94039.47;5074238;28;20250;-94
2022/07/30 01:46:49;;;;;;;2.50;2.23;;;;;;;16.43;87.81;94044.59;5069725;28;20200;-94
2022/07/30 01:49:35;;;;;;;2.70;2.50;;;;;;;16.37;88.40;94038.63;5065341;28;20293;-94
2022/07/30 01:52:22;;;;;;;3.43;2.43;;;;;;;16.47;87.19;94044.06;5075330;28;20203;-93
2022/07/30 01:55:08;;;;;;;3.33;2.60;;;;;;;16.60;87.28;94045.47;5072640;28;20200;-92
2022/07/30 01:57:54;;;;;;;3.83;2.70;;;;;;;16.41;88.11;94052.97;5075287;28;20207;-95
2022/07/30 02:00:42;;;;;;;2.50;2.30;;;;;;;16.43;87.62;94044.59;5055086;28;20212;-94
2022/07/30 02:03:28;;;;;;;2.97;2.77;;;;;;;16.41;88.06;94038.09;5084173;28;20313;-91
2022/07/30 02:06:21;;;;;;;3.63;2.50;;;;;;;16.71;86.53;94044.59;5073912;28;20259;-88
2022/07/30 02:09:07;;;;;;;4.23;3.07;;;;;;;16.63;85.40;94044.19;5078659;28;20660;-87
2022/07/30 02:15:09;;;;;;;3.90;2.50;;;;;;;16.81;83.58;94043.00;5086440;28;20680;-88
2022/07/30 02:18:19;;;;;;;5.37;3.20;;;;;;;16.85;83.58;94053.81;5076616;28;20212;-90
2022/07/30 02:21:07;;;;;;;3.03;2.70;;;;;;;16.93;82.44;94051.38;5052898;28;20703;-89
2022/07/30 02:23:57;;;;;;;3.30;3.00;;;;;;;16.91;81.47;94045.63;5062788;28;20311;-91
2022/07/30 02:26:48;;;;;;;2.73;2.53;;;;;;;16.98;80.80;94050.94;5065181;28;20251;-92
2022/07/30 02:29:36;;;;;;;3.07;2.50;;;;;;;17.05;79.89;94060.44;5055707;28;20220;-88
2022/07/30 02:32:23;;;;;;;3.70;2.40;;;;;;;17.18;79.97;94065.34;5064979;28;20265;-89
2022/07/30 02:35:19;;;;;;;3.37;2.47;;;;;;;17.23;77.99;94064.19;5057252;28;20200;-89
2022/07/30 02:38:05;;;;;;;4.23;2.90;;;;;;;17.25;79.03;94063.56;5059947;28;20216;-94
2022/07/30 02:40:52;;;;;;;4.10;2.30;;;;;;;17.15;79.26;94052.47;5070673;28;20280;-92
2022/07/30 02:43:39;;;;;;;4.47;2.80;;;;;;;17.25;78.21;94050.13;5076457;28;20196;-93
2022/07/30 02:46:26;;;;;;;4.20;2.50;;;;;;;17.20;78.38;94048.47;5069299;28;20196;-88
2022/07/30 02:49:41;;;;;;;2.53;2.27;;;;;;;17.19;78.67;94034.94;5065690;28;20731;-88
2022/07/30 02:52:28;;;;;;;5.50;2.63;;;;;;;17.21;78.46;94040.72;5060863;28;20204;-92
2022/07/30 02:55:16;;;;;;;9.23;2.97;;;;;;;17.22;78.70;94050.66;5057617;28;20204;-91
2022/07/30 02:58:03;;;;;;;2.90;2.50;;;;;;;17.25;78.43;94044.47;5062595;28;20208;-88
2022/07/30 03:00:50;;;;;;;3.33;2.70;;;;;;;17.21;78.91;94032.94;5057035;28;20688;-90
2022/07/30 03:03:36;;;;;;;2.83;2.50;;;;;;;17.25;78.18;94047.28;5076288;28;20215;-88
2022/07/30 03:06:24;;;;;;;2.97;2.67;;;;;;;17.35;76.96;94042.09;5058246;28;20254;-91
2022/07/30 03:09:09;;;;;;;3.93;2.70;;;;;;;17.21;77.64;94038.59;5067402;28;20743;-91
2022/07/30 03:11:55;;;;;;;3.83;3.00;;;;;;;17.17;78.93;94044.06;5073848;28;20207;-93
2022/07/30 03:14:40;;;;;;;3.77;2.50;;;;;;;17.17;78.18;94037.66;5084660;28;20236;-91
2022/07/30 03:17:27;;;;;;;3.30;3.00;;;;;;;17.18;77.74;94051.19;5065219;28;20196;-90
2022/07/30 03:20:16;;;;;;;4.77;2.70;;;;;;;17.19;77.21;94047.00;5075550;28;20254;-93
2022/07/30 03:23:02;;;;;;;2.57;2.37;;;;;;;17.22;76.51;94045.72;5058590;28;20258;-93
2022/07/30 03:25:51;;;;;;;6.43;3.10;;;;;;;17.30;75.90;94037.63;5059975;28;20235;-92
2022/07/30 03:28:38;;;;;;;5.37;3.23;;;;;;;17.53;74.90;94030.19;5060069;28;20302;-94
2022/07/30 03:31:22;;;;;;;2.50;2.23;;;;;;;17.63;73.62;94036.34;5058465;28;20232;-94
2022/07/30 03:34:07;;;;;;;2.97;2.67;;;;;;;17.45;74.09;94033.38;5061800;28;20289;-89
2022/07/30 03:36:55;;;;;;;2.70;2.50;;;;;;;17.51;74.07;94038.59;5074814;28;20200;-93
2022/07/30 03:39:40;;;;;;;3.93;2.93;;;;;;;17.49;74.61;94032.81;5052151;28;20232;-90
2022/07/30 03:42:26;;;;;;;3.77;2.93;;;;;;;17.52;74.93;94042.91;5059721;28;20281;-90
2022/07/30 03:45:12;;;;;;;3.07;2.77;;;;;;;17.39;76.30;94058.56;5072497;28;20204;-94
2022/07/30 03:47:57;;;;;;;2.80;2.60;;;;;;;17.22;76.42;94051.38;5086995;28;20203;-92
2022/07/30 03:50:42;;;;;;;5.33;2.70;;;;;;;17.45;76.33;94066.63;5067615;28;20275;-95
2022/07/30 03:53:28;;;;;;;3.93;3.07;;;;;;;17.23;77.50;94058.50;5073809;28;21302;-91
2022/07/30 03:56:33;;;;;;;5.43;2.57;;;;;;;17.20;77.63;94068.28;5082492;28;20335;-92
2022/07/30 03:59:26;;;;;;;3.80;3.00;;;;;;;17.03;79.63;94074.53;5065726;28;20212;-92
2022/07/30 04:02:11;;;;;;;3.20;2.60;;;;;;;17.20;77.34;94065.47;5071515;28;20283;-93
2022/07/30 04:05:28;;;;;;;4.53;2.83;;;;;;;17.11;77.94;94060.75;5045168;28;20315;-90
2022/07/30 04:08:17;;;;;;;3.30;2.87;;;;;;;17.09;78.33;94069.16;5076322;28;20222;-95
2022/07/30 04:11:11;;;;;;;4.40;2.83;;;;;;;17.23;76.54;94067.00;5077940;28;20236;-92
2022/07/30 04:14:04;;;;;;;8.10;2.87;;;;;;;17.27;77.24;94075.72;5074502;28;20250;-94
2022/07/30 04:17:04;;;;;;;4.97;3.10;;;;;;;17.33;76.71;94073.19;5069865;28;20581;-90
2022/07/30 04:19:56;;;;;;;2.80;2.53;;;;;;;17.44;76.20;94071.56;5067159;28;20204;-90
2022/07/30 04:22:41;;;;;;;3.13;2.43;;;;;;;17.50;75.13;94071.13;5062626;28;20200;-94
2022/07/30 04:25:27;;;;;;;3.37;2.70;;;;;;;17.43;75.83;94086.34;5069013;28;20266;-95
2022/07/30 04:28:12;;;;;;;2.80;2.60;;;;;;;17.46;75.18;94085.84;5065515;28;20726;-92
2022/07/30 04:30:57;;;;;;;3.20;2.70;;;;;;;17.54;74.78;94091.88;5073510;28;20208;-90
2022/07/30 04:33:45;;;;;;;5.10;2.40;;;;;;;17.61;73.99;94101.44;5068546;28;20236;-94
2022/07/30 04:36:34;;;;;;;4.23;2.77;;;;;;;17.52;74.21;94105.22;5060970;28;20684;-96
2022/07/30 04:39:19;;;;;;;3.07;2.33;;;;;;;17.69;73.49;94113.16;5078414;28;20218;-89
2022/07/30 04:42:04;;;;;;;4.83;2.67;;;;;;;17.77;73.56;94119.94;5074512;28;20216;-89
2022/07/30 04:44:55;;;;;;;3.77;2.43;;;;;;;17.77;72.82;94130.56;5065175;28;20205;-88
2022/07/30 04:47:45;;;;;;;3.20;2.60;;;;;;;17.82;72.31;94126.53;5058592;28;20253;-92
2022/07/30 04:50:53;;;;;;;4.40;2.73;;;;;;;17.89;72.68;94125.47;5076495;28;20546;-90
2022/07/30 04:53:41;;;;;;;4.23;2.40;;;;;;;17.81;72.01;94119.41;5089758;28;20246;-93
2022/07/30 04:56:29;;;;;;;3.93;2.60;;;;;;;17.91;72.49;94134.03;5091774;28;20258;-91
2022/07/30 04:59:19;;;;;;;7.37;2.37;;;;;;;17.85;72.35;94128.09;5088261;28;20200;-93
2022/07/30 05:02:06;;;;;;;2.43;2.13;;;;;;;17.95;71.42;94128.59;5066023;28;20220;-91
2022/07/30 05:04:52;;;;;;;3.00;2.53;;;;;;;18.18;71.44;94128.25;5077915;28;20607;-91
2022/07/30 05:07:37;;;;;;;3.60;2.80;;;;;;;18.08;70.88;94116.41;5059934;28;20192;-95
2022/07/30 05:10:22;;;;;;;3.47;2.70;;;;;;;18.14;70.46;94111.06;5060879;28;20220;-95
2022/07/30 05:13:11;;;;;;;3.17;2.67;;;;;;;18.04;70.65;94121.91;5058850;28;20207;-90
2022/07/30 05:15:55;;;;;;;3.93;2.47;;;;;;;18.05;70.63;94120.53;5056368;28;20323;-90
2022/07/30 05:18:43;;;;;;;3.73;2.60;;;;;;;18.02;70.65;94116.13;5062021;28;20192;-88
2022/07/30 05:21:27;;;;;;;4.77;2.83;;;;;;;18.02;71.43;94121.81;5062178;28;20204;-88
2022/07/30 05:24:12;;;;;;;2.60;2.40;;;;;;;18.01;70.64;94130.97;5059545;28;20197;-95
2022/07/30 05:26:59;;;;;;;2.87;2.53;;;;;;;18.26;69.77;94144.19;5065922;28;20229;-94
2022/07/30 05:29:45;;;;;;;2.60;2.40;;;;;;;18.27;70.60;94139.97;5072921;28;20585;-89
2022/07/30 05:32:34;;;;;;;5.13;2.47;;;;;;;18.35;69.39;94128.97;5079146;28;20852;-89
2022/07/30 05:35:18;;;;;;;3.23;2.40;;;;;;;18.46;69.59;94145.09;5078344;28;20230;-91
2022/07/30 05:38:08;;;;;;;3.47;2.37;;;;;;;18.25;69.92;94151.22;5077096;28;20336;-90
2022/07/30 05:41:04;;;;;;;3.83;2.37;;;;;;;18.38;69.40;94153.97;5070653;28;20220;-91
2022/07/30 05:44:07;;;;;;;6.73;2.37;;;;;;;18.46;69.91;94162.84;5098510;28;20322;-90
2022/07/30 05:46:52;;;;;;;4.33;2.57;;;;;;;18.44;69.78;94156.38;5082074;28;20212;-87
2022/07/30 05:49:36;;;;;;;3.13;2.80;;;;;;;18.41;70.54;94154.78;5082681;28;20251;-93
2022/07/30 05:52:25;;;;;;;2.57;2.37;;;;;;;18.56;70.13;94165.47;5073330;28;20212;-91
2022/07/30 05:55:14;;;;;;;3.13;2.83;;;;;;;18.55;70.73;94178.19;5076867;28;20259;-93
2022/07/30 05:58:19;;;;;;;5.27;2.70;;;;;;;18.48;70.35;94174.31;5079330;28;20254;-91
2022/07/30 06:01:03;;;;;;;2.83;2.30;;;;;;;18.11;71.27;94174.72;5070255;28;20204;-92
2022/07/30 06:03:55;;;;;;;2.53;2.33;;;;;;;18.33;70.92;94177.13;5075404;28;20596;-94
2022/07/30 06:07:14;;;;;;;2.57;2.10;;;;;;;18.39;70.28;94186.63;5090838;28;20200;-88
2022/07/30 06:09:59;;;;;;;2.57;2.27;;;;;;;18.48;70.98;94187.75;5069960;28;20219;-94
2022/07/30 06:12:44;;;;;;;4.50;2.33;;;;;;;18.65;70.09;94178.63;5062978;28;20262;-91
2022/07/30 06:15:28;;;;;;;5.67;2.50;;;;;;;18.68;70.15;94188.72;5060828;28;20203;-91
2022/07/30 06:18:13;;;;;;;2.90;2.43;;;;;;;18.67;69.85;94186.50;5075413;28;20261;-91
2022/07/30 06:21:04;;;;;;;3.10;2.17;;;;;;;18.61;69.43;94184.13;5075351;28;20203;-93
2022/07/30 06:24:03;;;;;;;4.67;2.50;;;;;;;18.98;68.58;94201.44;5062625;28;20196;-90
2022/07/30 06:27:01;;;;;;;2.87;2.23;;;;;;;19.01;68.64;94195.84;5061853;28;20207;-92
2022/07/30 06:29:45;;;;;;;5.60;2.37;;;;;;;19.12;69.23;94194.91;5077614;28;20250;-95
2022/07/30 06:32:29;;;;;;;3.00;2.37;;;;;;;19.64;67.13;94197.19;5065554;28;20199;-90
2022/07/30 06:35:15;;;;;;;7.93;2.63;;;;;;;19.45;67.09;94202.72;5066824;28;20631;-93
2022/07/30 06:38:03;;;;;;;2.60;2.30;;;;;;;19.39;67.74;94189.72;5071975;28;20187;-90
2022/07/30 06:40:50;;;;;;;4.33;2.50;;;;;;;19.53;66.83;94209.50;5065812;28;20204;-94
2022/07/30 06:43:44;;;;;;;3.90;2.50;;;;;;;19.18;68.07;94207.28;5076420;28;20227;-92
2022/07/30 06:46:44;;;;;;;5.43;2.60;;;;;;;18.96;68.02;94206.28;5060390;28;20261;-91
2022/07/30 06:49:33;;;;;;;4.17;2.90;;;;;;;19.34;68.33;94210.81;5057499;28;20287;-91
2022/07/30 06:52:21;;;;;;;4.10;2.57;;;;;;;19.20;68.66;94229.34;5078037;28;20204;-94
2022/07/30 06:55:08;;;;;;;3.03;2.73;;;;;;;19.18;68.63;94226.44;5083277;28;20259;-92
2022/07/30 06:58:09;;;;;;;4.83;2.20;;;;;;;19.63;67.02;94229.84;5070524;28;20204;-90
2022/07/30 07:01:12;;;;;;;2.30;2.10;;;;;;;20.57;63.73;94229.41;5097758;28;20211;-87
2022/07/30 07:03:57;;;;;;;2.80;2.60;;;;;;;21.07;63.36;94227.03;5080547;28;20306;-88
2022/07/30 07:06:41;;;;;;;3.63;2.43;;;;;;;21.43;62.93;94232.63;5067198;28;20207;-91
2022/07/30 07:09:50;;;;;;;5.88;2.50;;;;;;;22.09;61.33;94232.09;5083345;28;20583;-91
2022/07/30 07:12:54;;;;;;;3.47;2.40;;;;;;;22.31;59.56;94231.34;5087406;28;20828;-87
2022/07/30 07:15:39;;;;;;;3.83;2.22;;;;;;;21.96;60.56;94230.25;5075082;28;20621;-92
2022/07/30 07:18:27;;;;;;;2.75;2.55;;;;;;;21.92;60.19;94235.75;5073764;28;20215;-92
2022/07/30 07:21:17;;;;;;;2.97;2.65;;;;;;;21.92;60.74;94235.75;5072991;28;20207;-95
2022/07/30 07:24:02;;;;;;;4.97;3.00;;;;;;;21.79;61.50;94231.03;5057346;28;20274;-86
2022/07/30 07:27:21;;;;;;;3.90;2.53;;;;;;;21.75;61.19;94240.19;5049145;28;20193;-87
2022/07/30 07:30:09;;;;;;;3.33;3.03;;;;;;;21.88;60.90;94229.94;5063148;28;20225;-90
2022/07/30 07:32:54;;;;;;;3.53;3.20;;;;;;;22.05;60.80;94231.97;5057830;28;20298;-86
2022/07/30 07:35:45;;;;;;;6.65;3.30;;;;;;;22.27;59.18;94228.38;5060890;28;20204;-92
2022/07/30 07:38:29;;;;;;;4.47;3.25;;;;;;;22.55;58.69;94229.28;5056649;28;20561;-89
2022/07/30 07:41:15;;;;;;;3.55;3.10;;;;;;;22.73;58.73;94232.72;5051493;28;20250;-88
2022/07/30 07:44:00;;;;;;;3.75;3.38;;;;;;;22.50;58.65;94230.56;5065275;28;20254;-89
2022/07/30 07:46:49;;;;;;;3.42;2.80;;;;;;;22.90;58.95;94234.69;5058919;28;20207;-92
2022/07/30 07:49:33;;;;;;;4.88;4.15;;;;;;;22.01;59.53;94231.84;5053989;28;20223;-88
2022/07/30 07:52:19;;;;;;;3.53;3.05;;;;;;;22.57;58.82;94232.22;5053202;28;20231;-90
2022/07/30 07:55:03;;;;;;;4.38;3.30;;;;;;;22.74;58.75;94222.75;5056503;28;20200;-88
2022/07/30 07:57:48;;;;;;;3.78;3.40;;;;;;;22.97;58.77;94222.03;5069089;28;20235;-93
2022/07/30 08:00:33;;;;;;;6.90;3.65;;;;;;;22.77;58.64;94227.16;5070541;28;20201;-90
2022/07/30 08:03:18;;;;;;;6.40;3.38;;;;;;;22.96;59.33;94232.00;5060896;28;20334;-92
2022/07/30 08:06:04;;;;;;;5.75;4.53;;;;;;;22.00;57.95;94223.94;5064455;28;20256;-93
2022/07/30 08:09:11;;;;;;;6.03;3.70;;;;;;;22.18;58.75;94233.81;5097725;28;20274;-92
2022/07/30 08:12:25;;;;;;;8.57;4.20;;;;;;;23.08;56.43;94230.91;5065671;28;20541;-94
2022/07/30 08:15:19;;;;;;;9.10;3.83;;;;;;;22.35;56.87;94234.34;5086096;28;20250;-93
2022/07/30 08:18:21;;;;;;;8.40;3.67;;;;;;;23.25;55.40;94238.56;5061573;28;20239;-89
2022/07/30 08:21:15;;;;;;;5.95;3.58;;;;;;;22.75;56.46;94235.66;5053307;28;20281;-91
2022/07/30 08:23:59;;;;;;;7.47;3.72;;;;;;;22.58;55.44;94233.66;5069156;28;20767;-89
2022/07/30 08:26:43;;;;;;;6.25;3.50;;;;;;;22.65;54.15;94235.28;5059118;28;20196;-90
2022/07/30 08:29:28;;;;;;;4.15;3.80;;;;;;;23.23;52.85;94244.22;5071330;28;20269;-87
2022/07/30 08:32:13;;;;;;;6.82;3.60;;;;;;;23.24;53.83;94242.81;5068785;28;20278;-92
2022/07/30 08:34:58;;;;;;;5.63;3.58;;;;;;;22.97;54.76;94244.88;5072196;28;20253;-87
2022/07/30 08:37:42;;;;;;;5.80;3.42;;;;;;;23.64;53.34;94235.38;5076564;28;20221;-89
2022/07/30 08:40:27;;;;;;;4.47;3.35;;;;;;;23.45;53.54;94233.44;5057472;28;20192;-91
2022/07/30 08:43:19;;;;;;;9.50;3.15;;;;;;;22.07;54.82;94234.88;5066331;28;20201;-92
2022/07/30 08:46:08;;;;;;;6.22;2.88;;;;;;;22.54;53.87;94239.25;5053061;28;20316;-90
2022/07/30 08:49:11;;;;;;;5.05;2.95;;;;;;;22.90;52.15;94239.66;5061651;28;20232;-91
2022/07/30 08:51:57;;;;;;;4.43;3.10;;;;;;;22.80;54.09;94231.50;5087364;28;20254;-89
2022/07/30 08:55:00;;;;;;;5.32;3.45;;;;;;;23.08;52.20;94243.09;5094389;28;20695;-85
2022/07/30 08:57:44;;;;;;;5.00;2.90;;;;;;;23.61;50.98;94239.63;5051745;28;20298;-90
2022/07/30 09:00:30;;;;;;;5.03;3.03;;;;;;;23.50;51.36;94235.03;5061339;28;20245;-92
2022/07/30 09:03:16;;;;;;;3.88;2.78;;;;;;;22.51;52.15;94234.88;5083009;28;20289;-89
2022/07/30 09:06:01;;;;;;;6.15;3.00;;;;;;;22.47;52.97;94240.44;5061684;28;20207;-88
2022/07/30 09:08:46;;;;;;;7.03;3.45;;;;;;;22.19;52.83;94231.69;5064515;28;20423;-92
2022/07/30 09:11:34;;;;;;;5.10;3.13;;;;;;;23.30;52.69;94238.00;5072453;28;20251;-90
2022/07/30 09:14:19;;;;;;;4.85;3.00;;;;;;;23.58;51.88;94243.81;5077349;28;20575;-90
2022/07/30 09:17:04;;;;;;;5.90;3.45;;;;;;;23.42;51.29;94246.19;5087209;28;20570;-89
2022/07/30 09:20:02;;;;;;;6.38;2.80;;;;;;;23.82;50.70;94245.91;5062793;28;20777;-89
2022/07/30 09:22:52;;;;;;;3.75;2.80;;;;;;;24.32;48.83;94241.47;5059602;28;20212;-86
2022/07/30 09:25:58;;;;;;;3.58;2.47;;;;;;;24.22;49.77;94246.97;5092143;28;20235;-87
2022/07/30 09:29:16;;;;;;;3.35;2.65;;;;;;;22.99;48.14;94247.09;5079190;28;20220;-90
2022/07/30 09:32:18;;;;;;;4.63;2.45;;;;;;;23.18;47.25;94242.63;5085286;28;20276;-91
2022/07/30 09:35:22;;;;;;;6.80;2.85;;;;;;;23.93;46.86;94244.75;5078221;28;20246;-96
2022/07/30 09:38:27;;;;;;;6.20;2.30;;;;;;;24.14;46.98;94241.72;5089909;28;20289;-89
2022/07/30 09:41:34;;;;;;;4.30;2.13;;;;;;;23.55;46.47;94239.44;5093883;28;20192;-85
2022/07/30 09:44:37;;;;;;;3.25;2.38;;;;;;;23.31;47.71;94241.59;5067094;28;20204;-87
2022/07/30 09:47:37;;;;;;;5.85;2.35;;;;;;;23.96;46.12;94246.25;5061776;28;20300;-86
2022/07/30 09:50:25;;;;;;;5.57;2.30;;;;;;;24.24;45.46;94244.16;5064986;28;20223;-88
2022/07/30 09:53:10;;;;;;;6.00;2.55;;;;;;;24.87;44.22;94242.81;5066808;28;20239;-94
2022/07/30 09:55:58;;;;;;;3.03;2.47;;;;;;;24.07;46.40;94239.41;5076323;28;20204;-88
2022/07/30 09:58:46;;;;;;;4.05;2.40;;;;;;;24.21;46.12;94245.50;5073936;28;20208;-94
2022/07/30 10:01:51;;;;;;;2.28;1.75;;;;;;;23.84;43.91;94248.78;5061514;28;20629;-87
2022/07/30 10:05:15;;;;;;;5.88;2.15;;;;;;;24.12;44.89;94243.81;5089469;28;20219;-89
2022/07/30 10:08:01;;;;;;;6.53;2.38;;;;;;;23.77;46.10;94236.44;5057440;28;20546;-87
2022/07/30 10:10:46;;;;;;;2.42;2.10;;;;;;;24.33;45.34;94239.34;5062634;28;20340;-89
2022/07/30 10:13:32;;;;;;;2.10;1.90;;;;;;;23.83;46.87;94247.31;5078535;28;20707;-87
2022/07/30 10:16:18;;;;;;;5.03;2.30;;;;;;;24.21;45.26;94233.31;5055307;28;20299;-89
2022/07/30 10:19:12;;;;;;;2.65;2.25;;;;;;;24.28;46.08;94232.78;5081753;28;20207;-87
2022/07/30 10:22:26;;;;;;;4.60;2.20;;;;;;;23.69;46.74;94239.84;5021157;28;20257;-88
2022/07/30 10:25:29;;;;;;;3.47;2.25;;;;;;;24.12;44.96;94240.97;5089522;28;20759;-88
2022/07/30 10:28:34;;;;;;;2.92;1.95;;;;;;;24.04;43.56;94235.00;5076861;28;20261;-93
2022/07/30 10:31:18;;;;;;;5.03;2.17;;;;;;;24.78;43.30;94241.16;5083571;28;20196;-88
2022/07/30 10:34:03;;;;;;;3.30;2.38;;;;;;;24.91;43.15;94237.19;5081972;28;20223;-87
2022/07/30 10:36:57;;;;;;;2.40;1.55;;;;;;;24.11;44.69;94230.91;5051564;28;20188;-91
2022/07/30 10:40:02;;;;;;;4.68;2.88;;;;;;;24.94;44.08;94235.78;5071813;28;20737;-90
2022/07/30 10:43:22;;;;;;;3.58;2.10;;;;;;;25.28;42.12;94244.44;5088423;28;20192;-91
2022/07/30 10:46:28;;;;;;;3.58;2.20;;;;;;;24.75;42.33;94248.97;5089108;28;20201;-89
2022/07/30 10:49:16;;;;;;;2.70;1.90;;;;;;;24.42;44.06;94258.94;5090365;28;20224;-91
2022/07/30 10:52:02;;;;;;;2.90;1.98;;;;;;;24.67;41.13;94248.78;5067217;28;20283;-89
2022/07/30 10:54:52;;;;;;;2.67;1.50;;;;;;;24.65;40.66;94234.41;5061214;28;20274;-86
2022/07/30 10:57:58;;;;;;;2.72;1.55;;;;;;;25.57;40.62;94245.78;5078530;28;20238;-95
2022/07/30 11:00:52;;;;;;;2.85;1.90;;;;;;;25.16;41.66;94250.66;5088865;28;20222;-88
2022/07/30 11:03:37;;;;;;;5.65;1.80;;;;;;;25.27;41.29;94246.56;5089522;28;20715;-96
2022/07/30 11:06:25;;;;;;;5.53;1.60;;;;;;;24.90;40.87;94252.91;5059052;28;20257;-94
2022/07/30 11:09:41;;;;;;;4.10;1.98;;;;;;;25.55;40.00;94255.03;5073040;28;20826;-95
2022/07/30 11:12:41;;;;;;;4.82;2.30;;;;;;;24.03;40.97;94253.59;5070754;28;20303;-91
2022/07/30 11:15:56;;;;;;;3.15;1.83;;;;;;;23.53;42.24;94256.53;5070122;28;20540;-92
2022/07/30 11:19:15;;;;;;;5.03;1.58;;;;;;;24.04;41.21;94249.34;5063709;28;20262;-91
2022/07/30 11:22:37;;;;;;;3.03;1.90;;;;;;;25.26;39.93;94245.13;5092677;28;20204;-86
2022/07/30 11:25:26;;;;;;;1.40;1.30;;;;;;;25.74;39.11;94241.78;5046175;28;20191;-94
2022/07/30 11:28:48;;;;;;;3.75;3.10;;;;;;;25.94;38.96;94247.94;5093991;28;20200;-86
2022/07/30 11:31:35;;;;;;;3.42;1.83;;;;;;;24.96;41.34;94244.44;5075240;28;20515;-86
2022/07/30 11:34:24;;;;;;;3.75;1.73;;;;;;;25.32;41.05;94250.97;5090584;28;20300;-89
2022/07/30 11:37:14;;;;;;;4.30;2.00;;;;;;;25.76;39.60;94236.09;5063918;28;20250;-91
2022/07/30 11:39:58;;;;;;;3.00;1.60;;;;;;;25.21;40.39;94240.72;5061950;28;20288;-93
2022/07/30 11:42:43;;;;;;;3.03;1.75;;;;;;;25.05;40.32;94243.25;5081532;28;20200;-91
2022/07/30 11:45:29;;;;;;;2.13;1.63;;;;;;;25.54;42.17;94241.38;5078104;28;20302;-87
2022/07/30 11:48:17;;;;;;;2.45;1.85;;;;;;;25.98;39.29;94227.91;5086517;28;20193;-92
2022/07/30 11:51:02;;;;;;;4.75;1.67;;;;;;;25.15;40.90;94237.72;5064624;28;20255;-85
2022/07/30 11:54:03;;;;;;;4.75;1.63;;;;;;;24.82;41.20;94241.97;5068042;28;20235;-85
2022/07/30 11:56:53;;;;;;;2.88;1.67;;;;;;;24.59;40.23;94242.84;5087967;28;20329;-91
2022/07/30 11:59:53;;;;;;;2.08;1.70;;;;;;;24.07;42.38;94254.41;5070463;28;20208;-92
2022/07/30 12:02:37;;;;;;;2.55;1.73;;;;;;;24.35;41.49;94231.53;5072552;28;20262;-86
2022/07/30 12:05:27;;;;;;;3.78;2.00;;;;;;;24.55;40.71;94260.69;5090026;28;20203;-95
2022/07/30 12:08:12;;;;;;;2.85;2.13;;;;;;;24.94;40.73;94258.72;5063281;28;20283;-87
2022/07/30 12:10:59;;;;;;;4.70;2.13;;;;;;;25.23;39.86;94246.50;5078097;28;20557;-86
2022/07/30 12:13:53;;;;;;;3.40;1.90;;;;;;;25.63;39.85;94237.28;5088850;28;20325;-84
2022/07/30 12:16:39;;;;;;;2.55;2.00;;;;;;;25.12;41.67;94238.38;5074564;28;20254;-92
2022/07/30 12:19:24;;;;;;;4.78;1.90;;;;;;;26.15;40.29;94226.06;5064984;28;20200;-90
2022/07/30 12:22:08;;;;;;;5.38;1.75;;;;;;;26.06;39.90;94228.06;5081489;28;20212;-93
2022/07/30 12:24:54;;;;;;;2.50;1.60;;;;;;;26.33;40.08;94234.28;5096950;28;20351;-86
2022/07/30 12:27:48;;;;;;;5.15;2.10;;;;;;;25.09;40.30;94240.44;5104146;28;20212;-88
2022/07/30 12:30:33;;;;;;;4.35;2.15;;;;;;;25.29;40.76;94235.16;5079123;28;20216;-90
2022/07/30 12:33:18;;;;;;;1.90;1.65;;;;;;;25.92;38.64;94227.09;5067864;28;20197;-87
2022/07/30 12:36:03;;;;;;;6.10;2.40;;;;;;;24.72;41.22;94232.41;5061357;28;20204;-93
2022/07/30 12:38:49;;;;;;;3.22;2.03;;;;;;;24.93;40.96;94240.09;5075462;28;20204;-93
2022/07/30 12:41:48;;;;;;;3.03;1.77;;;;;;;24.65;41.52;94233.66;5075227;28;20233;-92
2022/07/30 12:44:38;;;;;;;3.60;2.08;;;;;;;24.64;41.50;94237.94;5080903;28;20493;-89
2022/07/30 12:47:27;;;;;;;4.22;2.00;;;;;;;25.32;41.45;94228.03;5089251;28;20608;-86
2022/07/30 12:50:16;;;;;;;3.63;1.92;;;;;;;24.91;40.40;94228.56;5059900;28;20228;-93
2022/07/30 12:53:00;;;;;;;7.05;1.83;;;;;;;24.33;41.03;94222.88;5103696;28;20262;-91
2022/07/30 12:55:45;;;;;;;2.85;1.50;;;;;;;24.61;40.47;94227.84;5067185;28;20281;-87
2022/07/30 12:58:35;;;;;;;2.58;1.60;;;;;;;24.73;39.05;94223.13;5082736;28;20199;-92
2022/07/30 13:01:39;;;;;;;2.58;1.40;;;;;;;25.21;39.24;94214.91;5078026;28;20290;-89
2022/07/30 13:04:24;;;;;;;2.83;1.33;;;;;;;25.23;38.35;94226.41;5095313;28;20576;-89
2022/07/30 13:07:11;;;;;;;3.80;1.30;;;;;;;25.66;37.24;94230.19;5080495;28;20661;-90
2022/07/30 13:10:08;;;;;;;3.70;1.38;;;;;;;26.14;37.08;94231.06;5095026;28;20255;-87
2022/07/30 13:12:54;;;;;;;3.55;1.45;;;;;;;26.12;37.21;94227.44;5075353;28;20288;-95
2022/07/30 13:15:38;;;;;;;2.03;1.50;;;;;;;26.12;36.67;94222.41;5056618;28;20607;-90
2022/07/30 13:18:23;;;;;;;2.97;1.58;;;;;;;26.59;35.04;94214.59;5072092;28;20200;-89
2022/07/30 13:21:08;;;;;;;3.28;1.17;;;;;;;26.56;34.60;94216.00;5076032;28;20204;-86
2022/07/30 13:23:52;;;;;;;1.58;1.20;;;;;;;26.53;35.67;94228.88;5076777;28;20680;-90
2022/07/30 13:26:37;;;;;;;3.30;1.30;;;;;;;26.86;34.64;94213.56;5078997;28;20203;-93
2022/07/30 13:29:21;;;;;;;1.88;1.55;;;;;;;26.07;37.75;94209.41;5074773;28;20223;-93